createdAt,value
2017-06-19T00:00:19.252Z,69.59
2017-06-19T00:01:33.408Z,69.30
2017-06-19T00:02:35.287Z,69.36
2017-06-19T00:03:37.163Z,69.78
2017-06-19T00:04:39.031Z,69.20
2017-06-19T00:05:40.845Z,69.26
2017-06-19T00:06:42.650Z,69.68
2017-06-19T00:07:44.529Z,69.40
2017-06-19T00:08:46.386Z,69.30
2017-06-19T00:09:48.250Z,69.36
2017-06-19T00:11:02.450Z,69.17
2017-06-19T00:12:04.309Z,69.46
2017-06-19T00:13:06.192Z,69.40
2017-06-19T00:14:08.072Z,69.36
2017-06-19T00:15:09.880Z,69.56
2017-06-19T00:16:11.696Z,70.03
2017-06-19T00:17:13.557Z,70.03
2017-06-19T00:18:15.433Z,69.74
2017-06-19T00:19:17.301Z,69.65
2017-06-19T00:20:31.455Z,70.23
2017-06-19T00:21:33.316Z,69.87
2017-06-19T00:22:35.174Z,69.84
2017-06-19T00:23:37.035Z,70.32
2017-06-19T00:24:38.837Z,69.74
2017-06-19T00:25:40.637Z,70.23
2017-06-19T00:26:42.495Z,70.51
2017-06-19T00:27:44.358Z,70.84
2017-06-19T00:28:46.236Z,70.84
2017-06-19T00:30:00.362Z,70.45
2017-06-19T00:31:02.229Z,71.22
2017-06-19T00:32:04.089Z,70.64
2017-06-19T00:33:05.949Z,70.36
2017-06-19T00:34:07.769Z,69.97
2017-06-19T00:35:09.572Z,69.30
2017-06-19T00:36:11.449Z,69.01
2017-06-19T00:37:13.313Z,68.91
2017-06-19T00:38:15.196Z,68.91
2017-06-19T00:39:29.393Z,68.63
2017-06-19T00:40:31.248Z,69.11
2017-06-19T00:41:33.114Z,69.07
2017-06-19T00:42:34.981Z,68.79
2017-06-19T00:43:36.797Z,69.26
2017-06-19T00:44:38.595Z,69.36
2017-06-19T00:45:40.460Z,69.36
2017-06-19T00:46:42.317Z,69.17
2017-06-19T00:47:44.202Z,69.36
2017-06-19T00:48:58.404Z,69.56
2017-06-19T00:50:00.267Z,70.23
2017-06-19T00:51:02.128Z,69.93
2017-06-19T00:52:03.988Z,69.93
2017-06-19T00:53:05.794Z,69.84
2017-06-19T00:54:07.613Z,70.32
2017-06-19T00:55:09.491Z,70.23
2017-06-19T00:56:11.361Z,70.61
2017-06-19T00:57:13.239Z,70.51
2017-06-19T00:58:27.419Z,70.42
2017-06-19T00:59:29.282Z,70.03
2017-06-19T01:00:31.144Z,69.74
2017-06-19T01:01:33.010Z,70.03
2017-06-19T01:02:34.815Z,70.03
2017-06-19T01:03:36.612Z,70.03
2017-06-19T01:04:38.475Z,70.13
2017-06-19T01:05:40.340Z,69.93
2017-06-19T01:06:42.222Z,70.13
2017-06-19T01:07:56.407Z,69.93
2017-06-19T01:08:58.283Z,70.03
2017-06-19T01:10:00.144Z,70.03
2017-06-19T01:11:02.010Z,69.71
2017-06-19T01:12:03.812Z,69.71
2017-06-19T01:13:05.629Z,69.90
2017-06-19T01:14:07.490Z,70.48
2017-06-19T01:15:09.374Z,70.38
2017-06-19T01:16:11.239Z,70.57
2017-06-19T01:17:25.419Z,70.29
2017-06-19T01:18:27.279Z,70.29
2017-06-19T01:19:29.144Z,70.48
2017-06-19T01:20:31.012Z,70.57
2017-06-19T01:21:32.833Z,70.67
2017-06-19T01:22:34.635Z,70.67
2017-06-19T01:23:36.521Z,70.96
2017-06-19T01:24:38.402Z,70.96
2017-06-19T01:25:40.286Z,70.96
2017-06-19T01:26:54.422Z,71.34
2017-06-19T01:27:56.305Z,71.15
2017-06-19T01:28:58.195Z,70.86
2017-06-19T01:30:00.074Z,71.05
2017-06-19T01:31:01.870Z,71.34
2017-06-19T01:32:03.671Z,71.34
2017-06-19T01:33:05.529Z,71.31
2017-06-19T01:34:07.393Z,70.92
2017-06-19T01:35:09.256Z,71.11
2017-06-19T01:36:23.409Z,71.59
2017-06-19T01:37:25.269Z,71.59
2017-06-19T01:38:27.149Z,71.59
2017-06-19T01:39:29.030Z,71.50
2017-06-19T01:40:30.827Z,71.59
2017-06-19T01:41:32.625Z,71.50
2017-06-19T01:42:34.482Z,71.50
2017-06-19T01:43:36.347Z,71.59
2017-06-19T01:44:38.199Z,71.78
2017-06-19T01:45:52.378Z,71.98
2017-06-19T01:46:54.239Z,71.98
2017-06-19T01:47:56.118Z,72.07
2017-06-19T01:48:57.999Z,71.98
2017-06-19T01:49:59.802Z,71.88
2017-06-19T01:51:01.624Z,71.98
2017-06-19T01:52:03.501Z,71.98
2017-06-19T01:53:05.363Z,71.88
2017-06-19T01:54:07.243Z,71.69
2017-06-19T01:55:21.428Z,71.88
2017-06-19T01:56:23.303Z,71.69
2017-06-19T01:57:25.164Z,72.36
2017-06-19T01:58:27.015Z,72.07
2017-06-19T01:59:28.840Z,71.98
2017-06-19T02:00:30.661Z,72.45
2017-06-19T02:01:32.540Z,71.98
2017-06-19T02:02:34.398Z,72.45
2017-06-19T02:03:36.254Z,72.55
2017-06-19T02:04:50.389Z,72.74
2017-06-19T02:05:52.267Z,72.17
2017-06-19T02:06:54.130Z,72.36
2017-06-19T02:07:55.986Z,72.17
2017-06-19T02:08:57.785Z,72.27
2017-06-19T02:09:59.586Z,72.55
2017-06-19T02:11:01.469Z,72.45
2017-06-19T02:12:03.355Z,72.27
2017-06-19T02:13:05.236Z,72.07
2017-06-19T02:14:19.370Z,72.13
2017-06-19T02:15:21.229Z,72.23
2017-06-19T02:16:23.087Z,72.42
2017-06-19T02:17:24.950Z,72.52
2017-06-19T02:18:26.747Z,72.23
2017-06-19T02:19:28.544Z,72.42
2017-06-19T02:20:30.427Z,72.23
2017-06-19T02:21:32.306Z,72.23
2017-06-19T02:22:34.166Z,72.52
2017-06-19T02:23:48.371Z,72.42
2017-06-19T02:24:50.231Z,72.71
2017-06-19T02:25:52.092Z,72.61
2017-06-19T02:26:53.972Z,72.99
2017-06-19T02:27:55.774Z,72.71
2017-06-19T02:28:57.594Z,72.90
2017-06-19T02:29:59.454Z,73.19
2017-06-19T02:31:01.320Z,73.19
2017-06-19T02:32:03.195Z,72.90
2017-06-19T02:33:17.323Z,72.71
2017-06-19T02:34:19.190Z,72.80
2017-06-19T02:35:21.072Z,72.71
2017-06-19T02:36:22.927Z,72.71
2017-06-19T02:37:24.730Z,72.90
2017-06-19T02:38:26.528Z,72.61
2017-06-19T02:39:28.416Z,72.80
2017-06-19T02:40:30.341Z,72.71
2017-06-19T02:41:32.283Z,72.99
2017-06-19T02:42:46.439Z,72.71
2017-06-19T02:43:48.299Z,73.38
2017-06-19T02:44:50.162Z,73.47
2017-06-19T02:45:52.028Z,73.47
2017-06-19T02:46:53.852Z,72.71
2017-06-19T02:47:55.653Z,73.57
2017-06-19T02:48:57.512Z,73.38
2017-06-19T02:49:59.378Z,72.90
2017-06-19T02:51:01.240Z,72.74
2017-06-19T02:52:15.444Z,72.84
2017-06-19T02:53:17.327Z,73.13
2017-06-19T02:54:19.190Z,72.64
2017-06-19T02:55:21.054Z,72.27
2017-06-19T02:56:22.858Z,72.55
2017-06-19T02:57:24.683Z,72.27
2017-06-19T02:58:26.563Z,72.27
2017-06-19T02:59:28.427Z,72.17
2017-06-19T03:00:30.291Z,71.98
2017-06-19T03:01:44.479Z,72.03
2017-06-19T03:02:46.363Z,72.17
2017-06-19T03:03:48.248Z,71.88
2017-06-19T03:04:50.135Z,71.78
2017-06-19T03:05:51.938Z,71.59
2017-06-19T03:06:53.743Z,71.11
2017-06-19T03:07:55.602Z,70.29
2017-06-19T03:08:57.477Z,70.00
2017-06-19T03:09:59.353Z,68.88
2017-06-19T03:11:13.494Z,68.02
2017-06-19T03:12:15.376Z,67.29
2017-06-19T03:13:17.241Z,66.90
2017-06-19T03:14:19.106Z,66.64
2017-06-19T03:15:20.933Z,65.40
2017-06-19T03:16:22.760Z,64.72
2017-06-19T03:17:24.642Z,64.15
2017-06-19T03:18:26.508Z,63.51
2017-06-19T03:19:28.375Z,62.74
2017-06-19T03:20:42.533Z,62.48
2017-06-19T03:21:44.396Z,61.94
2017-06-19T03:22:46.262Z,61.74
2017-06-19T03:23:48.133Z,61.36
2017-06-19T03:24:49.957Z,59.94
2017-06-19T03:25:51.763Z,59.85
2017-06-19T03:26:53.653Z,58.89
2017-06-19T03:27:55.545Z,58.24
2017-06-19T03:28:57.439Z,57.40
2017-06-19T03:30:11.598Z,56.54
2017-06-19T03:31:13.463Z,55.79
2017-06-19T03:32:15.327Z,55.51
2017-06-19T03:33:17.197Z,54.74
2017-06-19T03:34:19.000Z,54.96
2017-06-19T03:35:20.808Z,53.99
2017-06-19T03:36:22.673Z,53.63
2017-06-19T03:37:24.549Z,53.34
2017-06-19T03:38:26.438Z,52.76
2017-06-19T03:39:40.604Z,52.01
2017-06-19T03:40:42.486Z,51.53
2017-06-19T03:41:44.355Z,51.85
2017-06-19T03:42:46.241Z,50.69
2017-06-19T03:43:48.051Z,50.33
2017-06-19T03:44:49.860Z,49.85
2017-06-19T03:45:51.744Z,49.07
2017-06-19T03:46:53.610Z,48.88
2017-06-19T03:47:55.479Z,48.71
2017-06-19T03:49:09.620Z,47.86
2017-06-19T03:50:11.489Z,47.48
2017-06-19T03:51:13.352Z,47.00
2017-06-19T03:52:15.224Z,47.00
2017-06-19T03:53:17.035Z,46.73
2017-06-19T03:54:18.865Z,46.25
2017-06-19T03:55:20.755Z,45.86
2017-06-19T03:56:22.620Z,45.47
2017-06-19T03:57:24.489Z,45.30
2017-06-19T03:58:38.630Z,45.30
2017-06-19T03:59:40.502Z,44.23
2017-06-19T04:00:42.391Z,43.75
2017-06-19T04:01:44.261Z,43.46
2017-06-19T04:02:46.102Z,43.46
2017-06-19T04:03:47.890Z,43.46
2017-06-19T04:04:49.781Z,43.37
2017-06-19T04:05:51.677Z,43.27
2017-06-19T04:06:53.568Z,43.46
2017-06-19T04:08:07.731Z,43.37
2017-06-19T04:09:09.621Z,43.55
2017-06-19T04:10:11.484Z,43.29
2017-06-19T04:11:13.359Z,42.63
2017-06-19T04:12:15.169Z,42.44
2017-06-19T04:13:16.998Z,41.49
2017-06-19T04:14:18.868Z,41.49
2017-06-19T04:15:20.735Z,41.02
2017-06-19T04:16:22.607Z,40.25
2017-06-19T04:17:36.752Z,40.17
2017-06-19T04:18:38.642Z,39.90
2017-06-19T04:19:40.509Z,39.51
2017-06-19T04:20:42.383Z,39.22
2017-06-19T04:21:44.217Z,38.34
2017-06-19T04:22:46.048Z,38.17
2017-06-19T04:23:47.921Z,38.17
2017-06-19T04:24:49.817Z,37.98
2017-06-19T04:25:51.714Z,37.98
2017-06-19T04:27:05.860Z,37.22
2017-06-19T04:28:07.756Z,37.32
2017-06-19T04:29:09.648Z,36.83
2017-06-19T04:30:11.539Z,36.83
2017-06-19T04:31:13.353Z,36.75
2017-06-19T04:32:15.179Z,36.85
2017-06-19T04:33:17.050Z,36.46
2017-06-19T04:34:18.923Z,36.36
2017-06-19T04:35:20.816Z,36.16
2017-06-19T04:36:34.988Z,35.80
2017-06-19T04:37:36.881Z,35.89
2017-06-19T04:38:38.777Z,35.80
2017-06-19T04:39:40.672Z,35.33
2017-06-19T04:40:42.506Z,35.71
2017-06-19T04:41:44.344Z,35.52
2017-06-19T04:42:46.212Z,35.25
2017-06-19T04:43:48.092Z,35.05
2017-06-19T04:44:49.978Z,34.56
2017-06-19T04:46:04.182Z,34.68
2017-06-19T04:47:06.074Z,34.39
2017-06-19T04:48:07.945Z,34.29
2017-06-19T04:49:09.824Z,34.09
2017-06-19T04:50:11.630Z,34.01
2017-06-19T04:51:13.447Z,33.92
2017-06-19T04:52:16.316Z,33.72
2017-06-19T04:53:18.200Z,33.72
2017-06-19T04:54:20.094Z,33.72
2017-06-19T04:55:34.240Z,33.33
2017-06-19T04:56:36.133Z,33.33
2017-06-19T04:57:38.006Z,33.23
2017-06-19T04:58:39.899Z,33.14
2017-06-19T04:59:41.711Z,33.06
2017-06-19T05:00:43.526Z,32.86
2017-06-19T05:01:45.418Z,32.76
2017-06-19T05:02:47.301Z,32.67
2017-06-19T05:03:49.170Z,32.37
2017-06-19T05:05:03.341Z,32.47
2017-06-19T05:06:05.243Z,32.29
2017-06-19T05:07:07.149Z,32.39
2017-06-19T05:08:09.049Z,32.09
2017-06-19T05:09:10.860Z,32.19
2017-06-19T05:10:12.679Z,31.99
2017-06-19T05:11:14.601Z,32.09
2017-06-19T05:12:16.501Z,32.29
2017-06-19T05:13:18.390Z,31.99
2017-06-19T05:14:32.554Z,32.01
2017-06-19T05:15:34.433Z,31.99
2017-06-19T05:16:36.323Z,32.09
2017-06-19T05:17:38.198Z,32.19
2017-06-19T05:18:40.028Z,32.09
2017-06-19T05:19:41.836Z,32.29
2017-06-19T05:20:43.703Z,32.39
2017-06-19T05:21:45.576Z,32.78
2017-06-19T05:22:47.445Z,32.58
2017-06-19T05:24:01.592Z,33.07
2017-06-19T05:25:03.464Z,33.07
2017-06-19T05:26:05.353Z,32.87
2017-06-19T05:27:07.221Z,33.07
2017-06-19T05:28:09.041Z,33.26
2017-06-19T05:29:10.872Z,33.26
2017-06-19T05:30:12.762Z,32.97
2017-06-19T05:31:14.635Z,33.17
2017-06-19T05:32:16.509Z,33.65
2017-06-19T05:33:30.658Z,34.12
2017-06-19T05:34:32.544Z,34.52
2017-06-19T05:35:34.414Z,34.91
2017-06-19T05:36:36.287Z,35.65
2017-06-19T05:37:38.094Z,36.12
2017-06-19T05:38:39.902Z,36.61
2017-06-19T05:39:41.764Z,37.00
2017-06-19T05:40:43.638Z,37.29
2017-06-19T05:41:45.508Z,37.46
2017-06-19T05:42:59.674Z,37.95
2017-06-19T05:44:01.566Z,38.34
2017-06-19T05:45:03.456Z,38.42
2017-06-19T05:46:05.350Z,39.29
2017-06-19T05:47:07.178Z,39.86
2017-06-19T05:48:08.986Z,40.06
2017-06-19T05:49:10.869Z,40.25
2017-06-19T05:50:12.743Z,40.25
2017-06-19T05:51:14.633Z,40.62
2017-06-19T05:52:28.775Z,41.01
2017-06-19T05:53:30.665Z,41.67
2017-06-19T05:54:32.552Z,42.52
2017-06-19T05:55:34.444Z,43.59
2017-06-19T05:56:36.277Z,44.24
2017-06-19T05:57:38.108Z,45.29
2017-06-19T05:58:39.993Z,46.16
2017-06-19T05:59:41.885Z,47.50
2017-06-19T06:00:43.746Z,48.25
2017-06-19T06:01:57.895Z,49.32
2017-06-19T06:02:59.781Z,50.16
2017-06-19T06:04:01.645Z,50.92
2017-06-19T06:05:03.519Z,51.59
2017-06-19T06:06:05.350Z,52.46
2017-06-19T06:07:07.175Z,51.66
2017-06-19T06:08:09.066Z,52.44
2017-06-19T06:09:10.931Z,52.14
2017-06-19T06:10:12.802Z,52.63
2017-06-19T06:11:26.967Z,52.41
2017-06-19T06:12:28.851Z,52.80
2017-06-19T06:13:30.720Z,53.09
2017-06-19T06:14:32.613Z,53.74
2017-06-19T06:15:34.440Z,53.96
2017-06-19T06:16:36.247Z,53.57
2017-06-19T06:17:38.134Z,52.31
2017-06-19T06:18:40.003Z,52.39
2017-06-19T06:19:41.871Z,52.19
2017-06-19T06:20:56.033Z,51.71
2017-06-19T06:21:57.895Z,52.39
2017-06-19T06:22:59.788Z,52.19
2017-06-19T06:24:01.655Z,51.61
2017-06-19T06:25:03.487Z,51.71
2017-06-19T06:26:05.315Z,50.74
2017-06-19T06:27:07.199Z,50.84
2017-06-19T06:28:09.072Z,50.57
2017-06-19T06:29:10.957Z,51.06
2017-06-19T06:30:25.102Z,50.96
2017-06-19T06:31:26.989Z,50.84
2017-06-19T06:32:28.878Z,51.42
2017-06-19T06:33:30.744Z,51.71
2017-06-19T06:34:32.548Z,51.61
2017-06-19T06:35:34.354Z,51.61
2017-06-19T06:36:36.239Z,52.19
2017-06-19T06:37:38.112Z,51.71
2017-06-19T06:38:40.000Z,51.51
2017-06-19T06:39:54.141Z,50.65
2017-06-19T06:40:56.009Z,50.35
2017-06-19T06:41:57.881Z,50.65
2017-06-19T06:42:59.768Z,50.26
2017-06-19T06:44:01.581Z,49.87
2017-06-19T06:45:03.405Z,49.97
2017-06-19T06:46:05.276Z,50.65
2017-06-19T06:47:07.163Z,50.74
2017-06-19T06:48:09.031Z,51.44
2017-06-19T06:49:23.191Z,51.83
2017-06-19T06:50:25.054Z,51.44
2017-06-19T06:51:26.924Z,51.73
2017-06-19T06:52:28.793Z,51.73
2017-06-19T06:53:30.608Z,51.64
2017-06-19T06:54:32.428Z,50.09
2017-06-19T06:55:34.297Z,48.54
2017-06-19T06:56:36.189Z,47.58
2017-06-19T06:57:38.055Z,47.58
2017-06-19T06:58:52.196Z,47.48
2017-06-19T06:59:54.065Z,47.19
2017-06-19T07:00:55.953Z,46.90
2017-06-19T07:01:57.845Z,46.63
2017-06-19T07:02:59.683Z,46.53
2017-06-19T07:04:01.483Z,46.34
2017-06-19T07:05:03.372Z,45.95
2017-06-19T07:06:05.264Z,45.37
2017-06-19T07:07:07.149Z,45.18
2017-06-19T07:08:21.360Z,45.18
2017-06-19T07:09:23.247Z,45.57
2017-06-19T07:10:25.134Z,45.86
2017-06-19T07:11:27.024Z,45.78
2017-06-19T07:12:28.849Z,45.98
2017-06-19T07:13:30.656Z,45.78
2017-06-19T07:14:32.525Z,45.88
2017-06-19T07:15:34.413Z,45.68
2017-06-19T07:16:36.276Z,45.98
2017-06-19T07:17:50.418Z,45.51
2017-06-19T07:18:52.289Z,45.20
2017-06-19T07:19:54.180Z,45.42
2017-06-19T07:20:56.067Z,45.13
2017-06-19T07:21:57.878Z,44.93
2017-06-19T07:22:59.706Z,45.20
2017-06-19T07:24:01.596Z,45.40
2017-06-19T07:25:03.490Z,45.20
2017-06-19T07:26:05.378Z,45.13
2017-06-19T07:27:19.542Z,45.20
2017-06-19T07:28:21.403Z,45.13
2017-06-19T07:29:23.274Z,45.13
2017-06-19T07:30:25.165Z,44.91
2017-06-19T07:31:26.997Z,45.03
2017-06-19T07:32:28.801Z,45.49
2017-06-19T07:33:30.667Z,44.91
2017-06-19T07:34:32.544Z,45.01
2017-06-19T07:35:34.427Z,44.81
2017-06-19T07:36:48.574Z,45.03
2017-06-19T07:37:50.455Z,45.32
2017-06-19T07:38:52.345Z,45.32
2017-06-19T07:39:54.217Z,45.13
2017-06-19T07:40:56.022Z,45.61
2017-06-19T07:41:57.828Z,45.51
2017-06-19T07:42:59.718Z,45.61
2017-06-19T07:44:01.607Z,45.73
2017-06-19T07:45:03.477Z,45.15
2017-06-19T07:46:17.641Z,45.54
2017-06-19T07:47:19.524Z,44.96
2017-06-19T07:48:21.390Z,45.05
2017-06-19T07:49:23.262Z,45.05
2017-06-19T07:50:25.075Z,45.05
2017-06-19T07:51:26.900Z,44.67
2017-06-19T07:52:28.764Z,44.27
2017-06-19T07:53:30.636Z,44.18
2017-06-19T07:54:32.500Z,44.18
2017-06-19T07:55:46.644Z,44.47
2017-06-19T07:56:48.515Z,44.27
2017-06-19T07:57:50.404Z,44.27
2017-06-19T07:58:52.275Z,43.99
2017-06-19T07:59:54.102Z,44.18
2017-06-19T08:00:55.910Z,43.89
2017-06-19T08:01:57.776Z,43.60
2017-06-19T08:02:59.650Z,42.54
2017-06-19T08:04:01.537Z,41.86
2017-06-19T08:05:15.697Z,42.24
2017-06-19T08:06:17.563Z,42.54
2017-06-19T08:07:19.435Z,42.92
2017-06-19T08:08:21.305Z,43.41
2017-06-19T08:09:23.109Z,43.41
2017-06-19T08:10:24.921Z,43.50
2017-06-19T08:11:26.812Z,43.43
2017-06-19T08:12:28.700Z,43.41
2017-06-19T08:13:30.570Z,43.04
2017-06-19T08:14:44.733Z,42.85
2017-06-19T08:15:46.581Z,42.85
2017-06-19T08:16:48.469Z,43.04
2017-06-19T08:17:50.363Z,42.36
2017-06-19T08:18:52.192Z,42.24
2017-06-19T08:19:54.000Z,41.49
2017-06-19T08:20:55.886Z,42.46
2017-06-19T08:21:57.778Z,41.97
2017-06-19T08:22:59.641Z,42.17
2017-06-19T08:24:13.784Z,42.26
2017-06-19T08:25:15.651Z,41.88
2017-06-19T08:26:17.523Z,41.97
2017-06-19T08:27:19.401Z,42.17
2017-06-19T08:28:21.229Z,42.26
2017-06-19T08:29:23.032Z,42.26
2017-06-19T08:30:24.861Z,42.26
2017-06-19T08:31:26.674Z,42.26
2017-06-19T08:32:28.498Z,41.20
2017-06-19T08:33:42.644Z,41.20
2017-06-19T08:34:44.508Z,41.20
2017-06-19T08:35:46.397Z,41.30
2017-06-19T08:36:48.264Z,41.49
2017-06-19T08:37:50.071Z,41.00
2017-06-19T08:38:51.876Z,41.20
2017-06-19T08:39:53.743Z,41.00
2017-06-19T08:40:55.615Z,41.30
2017-06-19T08:41:57.505Z,41.00
2017-06-19T08:43:11.670Z,40.81
2017-06-19T08:44:13.561Z,41.10
2017-06-19T08:45:15.423Z,41.00
2017-06-19T08:46:17.298Z,41.10
2017-06-19T08:47:19.124Z,40.03
2017-06-19T08:48:20.932Z,39.84
2017-06-19T08:49:22.817Z,39.65
2017-06-19T08:50:24.690Z,39.55
2017-06-19T08:51:26.524Z,39.94
2017-06-19T08:52:40.684Z,40.42
2017-06-19T08:53:42.573Z,39.94
2017-06-19T08:54:44.442Z,40.03
2017-06-19T08:55:46.333Z,40.03
2017-06-19T08:56:48.143Z,40.03
2017-06-19T08:57:49.966Z,40.23
2017-06-19T08:58:51.835Z,40.23
2017-06-19T08:59:53.705Z,40.13
2017-06-19T09:00:55.569Z,40.15
2017-06-19T09:02:09.712Z,40.15
2017-06-19T09:03:11.580Z,39.95
2017-06-19T09:04:13.451Z,40.25
2017-06-19T09:05:15.339Z,40.15
2017-06-19T09:06:17.149Z,40.54
2017-06-19T09:07:18.957Z,40.83
2017-06-19T09:08:20.843Z,41.02
2017-06-19T09:09:22.716Z,40.73
2017-06-19T09:10:24.583Z,40.73
2017-06-19T09:11:38.742Z,40.92
2017-06-19T09:12:40.609Z,40.15
2017-06-19T09:13:42.479Z,39.86
2017-06-19T09:14:44.353Z,38.99
2017-06-19T09:15:46.185Z,38.12
2017-06-19T09:16:48.016Z,38.12
2017-06-19T09:17:49.907Z,37.92
2017-06-19T09:18:51.803Z,37.43
2017-06-19T09:19:53.690Z,37.92
2017-06-19T09:21:07.855Z,37.53
2017-06-19T09:22:09.726Z,37.15
2017-06-19T09:23:11.613Z,36.95
2017-06-19T09:24:13.481Z,37.05
2017-06-19T09:25:15.290Z,36.76
2017-06-19T09:26:17.120Z,36.76
2017-06-19T09:27:18.986Z,36.77
2017-06-19T09:28:20.860Z,36.58
2017-06-19T09:29:22.751Z,36.85
2017-06-19T09:30:36.913Z,37.55
2017-06-19T09:31:38.775Z,37.16
2017-06-19T09:32:40.651Z,36.97
2017-06-19T09:33:42.522Z,37.07
2017-06-19T09:34:44.325Z,37.35
2017-06-19T09:35:46.136Z,37.94
2017-06-19T09:36:48.003Z,37.94
2017-06-19T09:37:49.894Z,37.94
2017-06-19T09:38:51.765Z,38.04
2017-06-19T09:40:05.928Z,37.84
2017-06-19T09:41:07.819Z,38.42
2017-06-19T09:42:09.707Z,38.73
2017-06-19T09:43:11.578Z,38.42
2017-06-19T09:44:13.411Z,39.11
2017-06-19T09:45:15.237Z,39.32
2017-06-19T09:46:17.106Z,39.22
2017-06-19T09:47:18.977Z,39.12
2017-06-19T09:48:20.865Z,39.03
2017-06-19T09:49:35.029Z,39.41
2017-06-19T09:50:36.903Z,39.32
2017-06-19T09:51:38.788Z,38.54
2017-06-19T09:52:40.677Z,38.73
2017-06-19T09:53:42.488Z,38.54
2017-06-19T09:54:44.296Z,38.34
2017-06-19T09:55:46.127Z,38.15
2017-06-19T09:56:47.958Z,38.25
2017-06-19T09:57:49.787Z,38.25
2017-06-19T09:59:03.928Z,38.42
2017-06-19T10:00:05.801Z,39.29
2017-06-19T10:01:07.691Z,39.22
2017-06-19T10:02:09.584Z,39.70
2017-06-19T10:03:11.417Z,39.88
2017-06-19T10:04:13.250Z,39.70
2017-06-19T10:05:15.135Z,39.70
2017-06-19T10:06:17.001Z,39.51
2017-06-19T10:07:18.868Z,39.22
2017-06-19T10:08:33.009Z,38.93
2017-06-19T10:09:34.875Z,38.25
2017-06-19T10:10:36.745Z,38.34
2017-06-19T10:11:38.620Z,38.15
2017-06-19T10:12:40.454Z,38.06
2017-06-19T10:13:42.278Z,38.15
2017-06-19T10:14:44.149Z,38.15
2017-06-19T10:15:46.042Z,38.25
2017-06-19T10:16:47.931Z,38.64
2017-06-19T10:18:02.098Z,39.61
2017-06-19T10:19:03.980Z,39.03
2017-06-19T10:20:05.851Z,39.12
2017-06-19T10:21:07.742Z,39.41
2017-06-19T10:22:09.555Z,38.44
2017-06-19T10:23:11.383Z,38.44
2017-06-19T10:24:13.276Z,38.15
2017-06-19T10:25:15.167Z,38.34
2017-06-19T10:26:17.060Z,38.25
2017-06-19T10:27:31.235Z,38.37
2017-06-19T10:28:33.127Z,38.56
2017-06-19T10:29:35.014Z,38.37
2017-06-19T10:30:36.878Z,38.37
2017-06-19T10:31:38.688Z,39.04
2017-06-19T10:32:40.517Z,39.82
2017-06-19T10:33:42.389Z,40.01
2017-06-19T10:34:44.257Z,39.82
2017-06-19T10:35:46.125Z,39.62
2017-06-19T10:37:00.291Z,39.14
2017-06-19T10:38:02.180Z,39.43
2017-06-19T10:39:04.072Z,39.62
2017-06-19T10:40:05.968Z,39.62
2017-06-19T10:41:07.792Z,39.62
2017-06-19T10:42:09.610Z,39.62
2017-06-19T10:43:11.498Z,39.62
2017-06-19T10:44:13.411Z,39.24
2017-06-19T10:45:15.253Z,39.14
2017-06-19T10:46:29.445Z,39.34
2017-06-19T10:47:31.335Z,39.24
2017-06-19T10:48:33.206Z,39.34
2017-06-19T10:49:35.075Z,39.04
2017-06-19T10:50:36.886Z,39.04
2017-06-19T10:51:38.693Z,39.24
2017-06-19T10:52:40.560Z,38.95
2017-06-19T10:53:42.431Z,38.95
2017-06-19T10:54:44.305Z,37.98
2017-06-19T10:55:58.473Z,38.17
2017-06-19T10:57:00.339Z,38.07
2017-06-19T10:58:02.210Z,37.78
2017-06-19T10:59:04.103Z,37.98
2017-06-19T11:00:05.935Z,38.27
2017-06-19T11:01:07.741Z,38.56
2017-06-19T11:02:09.612Z,38.75
2017-06-19T11:03:11.505Z,38.85
2017-06-19T11:04:13.397Z,38.57
2017-06-19T11:05:27.563Z,38.77
2017-06-19T11:06:29.451Z,38.77
2017-06-19T11:07:31.344Z,39.06
2017-06-19T11:08:33.229Z,38.87
2017-06-19T11:09:35.047Z,39.26
2017-06-19T11:10:36.876Z,39.16
2017-06-19T11:11:38.744Z,39.24
2017-06-19T11:12:40.635Z,39.04
2017-06-19T11:13:42.503Z,38.87
2017-06-19T11:14:56.647Z,38.67
2017-06-19T11:15:58.532Z,38.29
2017-06-19T11:17:00.400Z,38.19
2017-06-19T11:18:02.270Z,38.29
2017-06-19T11:19:04.085Z,38.09
2017-06-19T11:20:05.912Z,37.51
2017-06-19T11:21:07.785Z,37.60
2017-06-19T11:22:09.678Z,37.99
2017-06-19T11:23:11.546Z,38.09
2017-06-19T11:24:25.713Z,37.90
2017-06-19T11:25:27.604Z,39.06
2017-06-19T11:26:29.491Z,38.19
2017-06-19T11:27:31.364Z,38.29
2017-06-19T11:28:33.198Z,38.39
2017-06-19T11:29:35.003Z,38.57
2017-06-19T11:30:36.875Z,38.57
2017-06-19T11:31:38.767Z,38.67
2017-06-19T11:32:40.657Z,37.99
2017-06-19T11:33:54.799Z,37.22
2017-06-19T11:34:56.668Z,37.51
2017-06-19T11:35:58.540Z,37.90
2017-06-19T11:37:00.433Z,37.90
2017-06-19T11:38:02.243Z,37.80
2017-06-19T11:39:04.049Z,38.11
2017-06-19T11:40:05.941Z,37.99
2017-06-19T11:41:07.835Z,37.90
2017-06-19T11:42:09.724Z,37.90
2017-06-19T11:43:23.861Z,37.99
2017-06-19T11:44:25.737Z,38.09
2017-06-19T11:45:27.627Z,38.11
2017-06-19T11:46:29.496Z,38.01
2017-06-19T11:47:31.306Z,37.62
2017-06-19T11:48:33.114Z,37.82
2017-06-19T11:49:35.007Z,38.11
2017-06-19T11:50:36.879Z,38.11
2017-06-19T11:51:38.743Z,38.01
2017-06-19T11:52:52.884Z,38.21
2017-06-19T11:53:54.756Z,38.50
2017-06-19T11:54:56.645Z,38.21
2017-06-19T11:55:58.515Z,38.40
2017-06-19T11:57:00.330Z,38.21
2017-06-19T11:58:02.177Z,38.01
2017-06-19T11:59:04.033Z,38.11
2017-06-19T12:00:05.904Z,38.11
2017-06-19T12:01:07.765Z,38.03
2017-06-19T12:02:21.909Z,38.13
2017-06-19T12:03:23.782Z,37.93
2017-06-19T12:04:25.671Z,37.93
2017-06-19T12:05:27.545Z,37.26
2017-06-19T12:06:29.376Z,36.87
2017-06-19T12:07:31.204Z,36.77
2017-06-19T12:08:33.076Z,36.49
2017-06-19T12:09:34.965Z,36.00
2017-06-19T12:10:36.837Z,36.59
2017-06-19T12:11:51.000Z,36.59
2017-06-19T12:12:53.056Z,36.40
2017-06-19T12:13:54.989Z,36.30
2017-06-19T12:14:56.867Z,36.59
2017-06-19T12:15:58.679Z,36.40
2017-06-19T12:17:00.509Z,36.49
2017-06-19T12:18:02.397Z,36.10
2017-06-19T12:19:04.345Z,36.40
2017-06-19T12:20:06.235Z,36.98
2017-06-19T12:21:20.397Z,36.79
2017-06-19T12:22:22.270Z,37.08
2017-06-19T12:23:24.157Z,36.88
2017-06-19T12:24:26.032Z,36.98
2017-06-19T12:25:27.861Z,36.98
2017-06-19T12:26:29.675Z,37.08
2017-06-19T12:27:31.565Z,37.37
2017-06-19T12:28:33.503Z,37.37
2017-06-19T12:29:35.565Z,37.18
2017-06-19T12:30:49.832Z,37.08
2017-06-19T12:31:51.833Z,37.37
2017-06-19T12:32:53.705Z,36.40
2017-06-19T12:33:55.598Z,36.00
2017-06-19T12:34:57.408Z,36.00
2017-06-19T12:35:59.304Z,36.51
2017-06-19T12:37:01.296Z,36.40
2017-06-19T12:38:03.173Z,36.59
2017-06-19T12:39:05.094Z,36.88
2017-06-19T12:40:19.260Z,36.88
2017-06-19T12:41:21.246Z,37.37
2017-06-19T12:42:23.129Z,37.27
2017-06-19T12:43:25.010Z,37.08
2017-06-19T12:44:26.827Z,37.18
2017-06-19T12:45:28.632Z,37.18
2017-06-19T12:46:30.585Z,37.27
2017-06-19T12:47:32.455Z,37.08
2017-06-19T12:48:34.347Z,36.88
2017-06-19T12:49:48.511Z,36.98
2017-06-19T12:50:50.384Z,36.59
2017-06-19T12:51:52.254Z,36.69
2017-06-19T12:52:54.150Z,35.80
2017-06-19T12:53:55.981Z,36.47
2017-06-19T12:54:57.792Z,36.69
2017-06-19T12:55:59.680Z,36.47
2017-06-19T12:57:01.553Z,36.30
2017-06-19T12:58:03.428Z,36.49
2017-06-19T12:59:17.596Z,36.49
2017-06-19T13:00:19.489Z,36.69
2017-06-19T13:01:21.377Z,36.88
2017-06-19T13:02:23.251Z,36.88
2017-06-19T13:03:25.084Z,36.40
2017-06-19T13:04:26.890Z,35.73
2017-06-19T13:05:28.757Z,36.41
2017-06-19T13:06:30.629Z,36.12
2017-06-19T13:07:32.498Z,36.61
2017-06-19T13:08:46.666Z,36.61
2017-06-19T13:09:48.553Z,36.61
2017-06-19T13:10:50.424Z,36.32
2017-06-19T13:11:52.299Z,36.32
2017-06-19T13:12:54.131Z,36.51
2017-06-19T13:13:55.957Z,36.41
2017-06-19T13:14:57.825Z,36.32
2017-06-19T13:15:59.704Z,36.51
2017-06-19T13:17:01.566Z,36.41
2017-06-19T13:18:15.713Z,36.12
2017-06-19T13:19:17.606Z,35.73
2017-06-19T13:20:19.499Z,35.63
2017-06-19T13:21:21.390Z,35.65
2017-06-19T13:22:23.220Z,35.65
2017-06-19T13:23:25.034Z,35.73
2017-06-19T13:24:26.923Z,35.85
2017-06-19T13:25:28.804Z,35.75
2017-06-19T13:26:31.037Z,35.73
2017-06-19T13:27:45.298Z,35.93
2017-06-19T13:28:47.185Z,36.32
2017-06-19T13:29:49.055Z,35.75
2017-06-19T13:30:50.925Z,35.94
2017-06-19T13:31:52.828Z,35.83
2017-06-19T13:32:54.635Z,35.63
2017-06-19T13:33:56.505Z,35.73